sensor_id;sensor_type;location;lat;lon;timestamp;temperature;humidity
40654;DHT22;26344;45.532;9.232;2022-12-20T00:04:35;10.00;99.90
40654;DHT22;26344;45.532;9.232;2022-12-20T00:07:01;10.10;99.90
40654;DHT22;26344;45.532;9.232;2022-12-20T00:11:52;10.00;99.90
40654;DHT22;26344;45.532;9.232;2022-12-20T00:14:18;10.00;99.90
40654;DHT22;26344;45.532;9.232;2022-12-20T00:16:43;10.00;99.90
40654;DHT22;26344;45.532;9.232;2022-12-20T00:19:09;10.00;99.90
40654;DHT22;26344;45.532;9.232;2022-12-20T00:21:35;10.00;99.90
40654;DHT22;26344;45.532;9.232;2022-12-20T00:24:01;10.00;99.90
40654;DHT22;26344;45.532;9.232;2022-12-20T00:41:09;10.00;99.90
40654;DHT22;26344;45.532;9.232;2022-12-20T00:43:36;9.90;99.90
40654;DHT22;26344;45.532;9.232;2022-12-20T00:46:02;9.90;99.90
40654;DHT22;26344;45.532;9.232;2022-12-20T00:48:28;9.90;99.90
40654;DHT22;26344;45.532;9.232;2022-12-20T00:51:01;9.90;99.90
40654;DHT22;26344;45.532;9.232;2022-12-20T00:53:27;9.90;99.90
40654;DHT22;26344;45.532;9.232;2022-12-20T00:55:53;9.90;99.90
40654;DHT22;26344;45.532;9.232;2022-12-20T00:58:18;9.90;99.90
40654;DHT22;26344;45.532;9.232;2022-12-20T01:00:44;9.80;99.90
40654;DHT22;26344;45.532;9.232;2022-12-20T01:10:27;9.90;99.90
40654;DHT22;26344;45.532;9.232;2022-12-20T01:12:53;9.80;99.90
40654;DHT22;26344;45.532;9.232;2022-12-20T01:17:45;9.70;99.90
40654;DHT22;26344;45.532;9.232;2022-12-20T01:22:36;9.80;99.90
40654;DHT22;26344;45.532;9.232;2022-12-20T01:25:02;9.80;99.90
40654;DHT22;26344;45.532;9.232;2022-12-20T01:27:27;9.80;99.90
40654;DHT22;26344;45.532;9.232;2022-12-20T01:29:53;9.70;99.90
40654;DHT22;26344;45.532;9.232;2022-12-20T01:32:19;9.80;99.90
40654;DHT22;26344;45.532;9.232;2022-12-20T01:37:10;9.70;99.90
40654;DHT22;26344;45.532;9.232;2022-12-20T01:39:36;9.60;99.90
40654;DHT22;26344;45.532;9.232;2022-12-20T01:42:01;9.60;99.90
40654;DHT22;26344;45.532;9.232;2022-12-20T01:46:52;9.60;99.90
40654;DHT22;26344;45.532;9.232;2022-12-20T01:51:58;9.60;99.90
40654;DHT22;26344;45.532;9.232;2022-12-20T01:54:25;9.60;99.90
40654;DHT22;26344;45.532;9.232;2022-12-20T01:56:56;9.60;99.90
40654;DHT22;26344;45.532;9.232;2022-12-20T01:59:23;9.70;99.90
40654;DHT22;26344;45.532;9.232;2022-12-20T02:01:49;10.40;99.90
40654;DHT22;26344;45.532;9.232;2022-12-20T02:04:15;9.60;99.90
40654;DHT22;26344;45.532;9.232;2022-12-20T02:06:41;9.60;99.90
40654;DHT22;26344;45.532;9.232;2022-12-20T02:09:06;9.60;99.90
40654;DHT22;26344;45.532;9.232;2022-12-20T02:11:37;9.70;99.90
40654;DHT22;26344;45.532;9.232;2022-12-20T02:16:56;9.70;99.90
40654;DHT22;26344;45.532;9.232;2022-12-20T02:21:54;9.50;99.90
40654;DHT22;26344;45.532;9.232;2022-12-20T02:29:36;9.60;99.90
40654;DHT22;26344;45.532;9.232;2022-12-20T02:32:21;9.50;99.90
40654;DHT22;26344;45.532;9.232;2022-12-20T02:34:49;9.50;99.90
40654;DHT22;26344;45.532;9.232;2022-12-20T02:37:14;9.60;99.90
40654;DHT22;26344;45.532;9.232;2022-12-20T02:39:40;9.50;99.90
40654;DHT22;26344;45.532;9.232;2022-12-20T02:42:10;9.50;99.90
40654;DHT22;26344;45.532;9.232;2022-12-20T02:44:37;9.50;99.90
40654;DHT22;26344;45.532;9.232;2022-12-20T02:47:26;9.50;99.90
40654;DHT22;26344;45.532;9.232;2022-12-20T02:49:53;9.60;99.90
40654;DHT22;26344;45.532;9.232;2022-12-20T02:52:20;9.50;99.90
40654;DHT22;26344;45.532;9.232;2022-12-20T02:54:49;9.50;99.90
40654;DHT22;26344;45.532;9.232;2022-12-20T02:59:42;9.50;99.90
40654;DHT22;26344;45.532;9.232;2022-12-20T03:02:09;9.50;99.90
40654;DHT22;26344;45.532;9.232;2022-12-20T03:04:35;9.50;99.90
40654;DHT22;26344;45.532;9.232;2022-12-20T03:07:04;9.50;99.90
40654;DHT22;26344;45.532;9.232;2022-12-20T03:09:30;9.50;99.90
40654;DHT22;26344;45.532;9.232;2022-12-20T03:11:58;9.50;99.90
40654;DHT22;26344;45.532;9.232;2022-12-20T03:14:23;9.50;99.90
40654;DHT22;26344;45.532;9.232;2022-12-20T03:16:49;9.50;99.90
40654;DHT22;26344;45.532;9.232;2022-12-20T03:19:14;9.20;99.90
40654;DHT22;26344;45.532;9.232;2022-12-20T03:21:41;9.40;99.90
40654;DHT22;26344;45.532;9.232;2022-12-20T03:24:06;9.40;99.90
40654;DHT22;26344;45.532;9.232;2022-12-20T03:26:32;9.50;99.90
40654;DHT22;26344;45.532;9.232;2022-12-20T03:28:58;9.40;99.90
40654;DHT22;26344;45.532;9.232;2022-12-20T03:31:23;9.40;99.90
40654;DHT22;26344;45.532;9.232;2022-12-20T03:33:48;9.40;99.90
40654;DHT22;26344;45.532;9.232;2022-12-20T03:36:14;9.30;99.90
40654;DHT22;26344;45.532;9.232;2022-12-20T03:38:39;9.40;99.90
40654;DHT22;26344;45.532;9.232;2022-12-20T03:41:05;9.40;99.90
40654;DHT22;26344;45.532;9.232;2022-12-20T03:43:30;12.00;99.90
40654;DHT22;26344;45.532;9.232;2022-12-20T03:48:23;9.50;99.90
40654;DHT22;26344;45.532;9.232;2022-12-20T03:50:48;9.40;99.90
40654;DHT22;26344;45.532;9.232;2022-12-20T03:53:13;9.50;99.90
40654;DHT22;26344;45.532;9.232;2022-12-20T03:55:39;9.40;99.90
40654;DHT22;26344;45.532;9.232;2022-12-20T03:58:05;10.20;99.90
40654;DHT22;26344;45.532;9.232;2022-12-20T04:00:30;9.50;99.90
40654;DHT22;26344;45.532;9.232;2022-12-20T04:02:56;11.50;99.90
40654;DHT22;26344;45.532;9.232;2022-12-20T04:07:47;9.50;99.90
40654;DHT22;26344;45.532;9.232;2022-12-20T04:10:12;9.50;99.90
40654;DHT22;26344;45.532;9.232;2022-12-20T04:12:38;9.40;99.90
40654;DHT22;26344;45.532;9.232;2022-12-20T04:15:03;10.30;99.90
40654;DHT22;26344;45.532;9.232;2022-12-20T04:17:29;9.50;99.90
40654;DHT22;26344;45.532;9.232;2022-12-20T04:19:55;9.40;99.90
40654;DHT22;26344;45.532;9.232;2022-12-20T04:22:20;9.40;99.90
40654;DHT22;26344;45.532;9.232;2022-12-20T04:24:46;10.90;99.90
40654;DHT22;26344;45.532;9.232;2022-12-20T04:27:11;9.40;99.90
40654;DHT22;26344;45.532;9.232;2022-12-20T04:29:37;10.30;99.90
40654;DHT22;26344;45.532;9.232;2022-12-20T04:32:02;11.70;99.90
40654;DHT22;26344;45.532;9.232;2022-12-20T04:34:28;9.30;99.90
40654;DHT22;26344;45.532;9.232;2022-12-20T04:36:53;9.40;99.90
40654;DHT22;26344;45.532;9.232;2022-12-20T04:39:19;9.40;99.90
40654;DHT22;26344;45.532;9.232;2022-12-20T04:41:44;9.30;99.90
40654;DHT22;26344;45.532;9.232;2022-12-20T04:44:10;9.60;99.90
40654;DHT22;26344;45.532;9.232;2022-12-20T04:46:35;10.20;99.90
40654;DHT22;26344;45.532;9.232;2022-12-20T04:49:01;9.50;99.90
40654;DHT22;26344;45.532;9.232;2022-12-20T04:51:26;12.90;99.90
40654;DHT22;26344;45.532;9.232;2022-12-20T04:53:52;9.50;99.90
40654;DHT22;26344;45.532;9.232;2022-12-20T04:56:22;9.60;99.90
40654;DHT22;26344;45.532;9.232;2022-12-20T04:58:48;9.60;99.90
40654;DHT22;26344;45.532;9.232;2022-12-20T05:01:15;9.40;99.90
40654;DHT22;26344;45.532;9.232;2022-12-20T05:03:41;9.50;99.90
40654;DHT22;26344;45.532;9.232;2022-12-20T05:06:07;9.30;99.90
40654;DHT22;26344;45.532;9.232;2022-12-20T05:08:32;9.40;99.90
40654;DHT22;26344;45.532;9.232;2022-12-20T05:10:58;9.50;99.90
40654;DHT22;26344;45.532;9.232;2022-12-20T05:13:24;9.40;99.90
40654;DHT22;26344;45.532;9.232;2022-12-20T05:15:50;9.40;99.90
40654;DHT22;26344;45.532;9.232;2022-12-20T05:18:16;9.80;99.90
40654;DHT22;26344;45.532;9.232;2022-12-20T05:20:42;9.30;99.90
40654;DHT22;26344;45.532;9.232;2022-12-20T05:23:08;9.40;99.90
40654;DHT22;26344;45.532;9.232;2022-12-20T05:25:52;9.30;99.90
40654;DHT22;26344;45.532;9.232;2022-12-20T05:28:26;9.30;99.90
40654;DHT22;26344;45.532;9.232;2022-12-20T05:30:54;9.30;99.90
40654;DHT22;26344;45.532;9.232;2022-12-20T05:33:19;9.20;99.90
40654;DHT22;26344;45.532;9.232;2022-12-20T05:35:45;9.30;99.90
40654;DHT22;26344;45.532;9.232;2022-12-20T05:38:11;8.90;99.90
40654;DHT22;26344;45.532;9.232;2022-12-20T05:40:36;9.20;99.90
40654;DHT22;26344;45.532;9.232;2022-12-20T05:43:03;9.20;99.90
40654;DHT22;26344;45.532;9.232;2022-12-20T05:45:28;9.10;99.90
40654;DHT22;26344;45.532;9.232;2022-12-20T05:47:54;9.10;99.90
40654;DHT22;26344;45.532;9.232;2022-12-20T05:50:19;9.10;99.90
40654;DHT22;26344;45.532;9.232;2022-12-20T05:52:45;9.10;99.90
40654;DHT22;26344;45.532;9.232;2022-12-20T05:55:10;9.30;99.90
40654;DHT22;26344;45.532;9.232;2022-12-20T05:57:36;9.10;99.90
40654;DHT22;26344;45.532;9.232;2022-12-20T06:00:02;9.30;99.90
40654;DHT22;26344;45.532;9.232;2022-12-20T06:02:28;12.30;99.90
40654;DHT22;26344;45.532;9.232;2022-12-20T06:04:53;9.30;99.90
40654;DHT22;26344;45.532;9.232;2022-12-20T06:07:19;9.10;99.90
40654;DHT22;26344;45.532;9.232;2022-12-20T06:09:45;9.40;99.90
40654;DHT22;26344;45.532;9.232;2022-12-20T06:12:11;9.30;99.90
40654;DHT22;26344;45.532;9.232;2022-12-20T06:14:36;9.40;99.90
40654;DHT22;26344;45.532;9.232;2022-12-20T06:17:02;9.50;99.90
40654;DHT22;26344;45.532;9.232;2022-12-20T06:19:27;9.30;99.90
40654;DHT22;26344;45.532;9.232;2022-12-20T06:21:52;9.40;99.90
40654;DHT22;26344;45.532;9.232;2022-12-20T06:24:18;11.10;99.90
40654;DHT22;26344;45.532;9.232;2022-12-20T06:26:43;10.10;99.90
40654;DHT22;26344;45.532;9.232;2022-12-20T06:29:09;9.30;99.90
40654;DHT22;26344;45.532;9.232;2022-12-20T06:31:38;9.40;99.90
40654;DHT22;26344;45.532;9.232;2022-12-20T06:34:04;9.20;99.90
40654;DHT22;26344;45.532;9.232;2022-12-20T06:36:29;9.40;99.90
40654;DHT22;26344;45.532;9.232;2022-12-20T06:38:55;9.40;99.90
40654;DHT22;26344;45.532;9.232;2022-12-20T06:41:20;10.60;99.90
40654;DHT22;26344;45.532;9.232;2022-12-20T06:43:46;9.20;99.90
40654;DHT22;26344;45.532;9.232;2022-12-20T06:46:11;9.40;99.90
40654;DHT22;26344;45.532;9.232;2022-12-20T06:48:37;9.30;99.90
40654;DHT22;26344;45.532;9.232;2022-12-20T06:51:02;9.30;99.90
40654;DHT22;26344;45.532;9.232;2022-12-20T06:53:28;9.40;99.90
40654;DHT22;26344;45.532;9.232;2022-12-20T06:55:53;9.60;99.90
40654;DHT22;26344;45.532;9.232;2022-12-20T06:58:19;9.30;99.90
40654;DHT22;26344;45.532;9.232;2022-12-20T07:00:45;9.50;99.90
40654;DHT22;26344;45.532;9.232;2022-12-20T07:03:10;9.90;99.90
40654;DHT22;26344;45.532;9.232;2022-12-20T07:05:36;10.10;99.90
40654;DHT22;26344;45.532;9.232;2022-12-20T07:08:02;9.40;99.90
40654;DHT22;26344;45.532;9.232;2022-12-20T07:10:35;9.40;99.90
40654;DHT22;26344;45.532;9.232;2022-12-20T07:13:00;9.50;99.90
40654;DHT22;26344;45.532;9.232;2022-12-20T07:15:26;11.70;99.90
40654;DHT22;26344;45.532;9.232;2022-12-20T07:17:51;10.60;99.90
40654;DHT22;26344;45.532;9.232;2022-12-20T07:20:17;9.60;99.90
40654;DHT22;26344;45.532;9.232;2022-12-20T07:22:43;9.40;99.90
40654;DHT22;26344;45.532;9.232;2022-12-20T07:25:11;9.70;99.90
40654;DHT22;26344;45.532;9.232;2022-12-20T07:27:36;9.40;99.90
40654;DHT22;26344;45.532;9.232;2022-12-20T07:30:02;9.60;99.90
40654;DHT22;26344;45.532;9.232;2022-12-20T07:32:29;9.60;99.90
40654;DHT22;26344;45.532;9.232;2022-12-20T07:34:54;9.50;99.90
40654;DHT22;26344;45.532;9.232;2022-12-20T07:37:20;9.70;99.90
40654;DHT22;26344;45.532;9.232;2022-12-20T07:39:45;9.80;99.90
40654;DHT22;26344;45.532;9.232;2022-12-20T07:42:11;9.70;99.90
40654;DHT22;26344;45.532;9.232;2022-12-20T07:44:36;9.40;99.90
40654;DHT22;26344;45.532;9.232;2022-12-20T07:47:02;9.50;99.90
40654;DHT22;26344;45.532;9.232;2022-12-20T07:49:27;9.40;99.90
40654;DHT22;26344;45.532;9.232;2022-12-20T07:51:54;9.40;99.90
40654;DHT22;26344;45.532;9.232;2022-12-20T07:54:22;9.60;99.90
40654;DHT22;26344;45.532;9.232;2022-12-20T07:56:56;9.50;99.90
40654;DHT22;26344;45.532;9.232;2022-12-20T07:59:24;9.70;99.90
40654;DHT22;26344;45.532;9.232;2022-12-20T08:01:50;9.50;99.90
40654;DHT22;26344;45.532;9.232;2022-12-20T08:04:17;9.50;99.90
40654;DHT22;26344;45.532;9.232;2022-12-20T08:06:43;9.40;99.90
40654;DHT22;26344;45.532;9.232;2022-12-20T08:09:09;9.80;99.90
40654;DHT22;26344;45.532;9.232;2022-12-20T08:11:37;10.50;99.90
40654;DHT22;26344;45.532;9.232;2022-12-20T08:14:04;9.50;99.90
40654;DHT22;26344;45.532;9.232;2022-12-20T08:16:31;10.30;99.90
40654;DHT22;26344;45.532;9.232;2022-12-20T08:18:56;9.60;99.90
40654;DHT22;26344;45.532;9.232;2022-12-20T08:21:22;9.80;99.90
40654;DHT22;26344;45.532;9.232;2022-12-20T08:26:13;9.60;99.90
40654;DHT22;26344;45.532;9.232;2022-12-20T08:28:39;9.70;99.90
40654;DHT22;26344;45.532;9.232;2022-12-20T08:33:31;9.70;99.90
40654;DHT22;26344;45.532;9.232;2022-12-20T08:35:57;9.60;99.90
40654;DHT22;26344;45.532;9.232;2022-12-20T08:38:24;11.20;99.90
40654;DHT22;26344;45.532;9.232;2022-12-20T08:40:50;9.60;99.90
40654;DHT22;26344;45.532;9.232;2022-12-20T08:43:15;11.90;99.90
40654;DHT22;26344;45.532;9.232;2022-12-20T08:45:41;9.90;99.90
40654;DHT22;26344;45.532;9.232;2022-12-20T08:48:07;9.70;99.90
40654;DHT22;26344;45.532;9.232;2022-12-20T08:50:32;9.90;99.90
40654;DHT22;26344;45.532;9.232;2022-12-20T08:52:58;9.80;99.90
40654;DHT22;26344;45.532;9.232;2022-12-20T08:55:23;9.70;99.90
40654;DHT22;26344;45.532;9.232;2022-12-20T08:57:48;9.80;99.90
40654;DHT22;26344;45.532;9.232;2022-12-20T09:00:14;10.30;99.90
40654;DHT22;26344;45.532;9.232;2022-12-20T09:02:40;10.00;99.90
40654;DHT22;26344;45.532;9.232;2022-12-20T09:05:06;9.80;99.90
40654;DHT22;26344;45.532;9.232;2022-12-20T09:07:32;9.80;99.90
40654;DHT22;26344;45.532;9.232;2022-12-20T09:09:57;9.90;99.90
40654;DHT22;26344;45.532;9.232;2022-12-20T09:12:23;9.80;99.90
40654;DHT22;26344;45.532;9.232;2022-12-20T09:14:48;10.00;99.90
40654;DHT22;26344;45.532;9.232;2022-12-20T09:17:14;10.00;99.90
40654;DHT22;26344;45.532;9.232;2022-12-20T09:19:41;10.20;99.90
40654;DHT22;26344;45.532;9.232;2022-12-20T09:22:06;10.00;99.90
40654;DHT22;26344;45.532;9.232;2022-12-20T09:24:32;9.90;99.90
40654;DHT22;26344;45.532;9.232;2022-12-20T09:26:58;10.80;99.90
40654;DHT22;26344;45.532;9.232;2022-12-20T09:29:24;12.10;99.90
40654;DHT22;26344;45.532;9.232;2022-12-20T09:31:49;11.00;99.90
40654;DHT22;26344;45.532;9.232;2022-12-20T09:34:15;10.10;99.90
40654;DHT22;26344;45.532;9.232;2022-12-20T09:36:40;11.40;99.90
40654;DHT22;26344;45.532;9.232;2022-12-20T09:39:06;11.20;99.90
40654;DHT22;26344;45.532;9.232;2022-12-20T09:41:32;9.90;99.90
40654;DHT22;26344;45.532;9.232;2022-12-20T09:44:00;9.90;99.90
40654;DHT22;26344;45.532;9.232;2022-12-20T09:46:28;10.20;99.90
40654;DHT22;26344;45.532;9.232;2022-12-20T09:48:53;10.10;99.90
40654;DHT22;26344;45.532;9.232;2022-12-20T09:53:55;10.00;99.90
40654;DHT22;26344;45.532;9.232;2022-12-20T09:56:29;9.50;99.90
40654;DHT22;26344;45.532;9.232;2022-12-20T09:59:10;10.00;99.90
40654;DHT22;26344;45.532;9.232;2022-12-20T10:01:38;10.00;99.90
40654;DHT22;26344;45.532;9.232;2022-12-20T10:09:50;10.10;99.90
40654;DHT22;26344;45.532;9.232;2022-12-20T10:12:21;10.10;99.90
40654;DHT22;26344;45.532;9.232;2022-12-20T10:15:13;10.20;99.90
40654;DHT22;26344;45.532;9.232;2022-12-20T10:17:45;10.20;99.90
40654;DHT22;26344;45.532;9.232;2022-12-20T10:20:18;10.20;99.90
40654;DHT22;26344;45.532;9.232;2022-12-20T10:22:52;10.00;99.90
40654;DHT22;26344;45.532;9.232;2022-12-20T10:25:19;10.20;99.90
40654;DHT22;26344;45.532;9.232;2022-12-20T10:27:45;10.20;99.90
40654;DHT22;26344;45.532;9.232;2022-12-20T10:30:19;10.40;99.90
40654;DHT22;26344;45.532;9.232;2022-12-20T10:32:49;10.40;99.90
40654;DHT22;26344;45.532;9.232;2022-12-20T10:35:23;12.10;99.90
40654;DHT22;26344;45.532;9.232;2022-12-20T10:38:02;10.50;99.90
40654;DHT22;26344;45.532;9.232;2022-12-20T10:40:32;10.40;99.90
40654;DHT22;26344;45.532;9.232;2022-12-20T10:42:59;10.50;99.90
40654;DHT22;26344;45.532;9.232;2022-12-20T10:45:33;10.50;99.90
40654;DHT22;26344;45.532;9.232;2022-12-20T10:48:00;10.20;99.90
40654;DHT22;26344;45.532;9.232;2022-12-20T10:50:27;10.70;99.90
40654;DHT22;26344;45.532;9.232;2022-12-20T10:53:04;10.50;99.90
40654;DHT22;26344;45.532;9.232;2022-12-20T10:55:37;10.60;99.90
40654;DHT22;26344;45.532;9.232;2022-12-20T10:58:48;10.70;99.90
40654;DHT22;26344;45.532;9.232;2022-12-20T11:00:49;11.00;99.90
40654;DHT22;26344;45.532;9.232;2022-12-20T11:05:40;11.50;99.90
40654;DHT22;26344;45.532;9.232;2022-12-20T11:08:16;10.90;99.90
40654;DHT22;26344;45.532;9.232;2022-12-20T11:10:42;11.40;99.90
40654;DHT22;26344;45.532;9.232;2022-12-20T11:13:17;11.20;99.90
40654;DHT22;26344;45.532;9.232;2022-12-20T11:15:47;10.90;99.90
40654;DHT22;26344;45.532;9.232;2022-12-20T11:18:18;10.70;99.90
40654;DHT22;26344;45.532;9.232;2022-12-20T11:20:53;10.90;99.90
40654;DHT22;26344;45.532;9.232;2022-12-20T11:23:27;10.70;99.90
40654;DHT22;26344;45.532;9.232;2022-12-20T11:40:54;11.40;99.90
40654;DHT22;26344;45.532;9.232;2022-12-20T11:45:53;11.50;99.90
40654;DHT22;26344;45.532;9.232;2022-12-20T12:00:32;11.40;99.90
40654;DHT22;26344;45.532;9.232;2022-12-20T12:03:18;11.50;99.90
40654;DHT22;26344;45.532;9.232;2022-12-20T12:08:16;11.30;99.80
40654;DHT22;26344;45.532;9.232;2022-12-20T12:27:44;11.30;99.80
40654;DHT22;26344;45.532;9.232;2022-12-20T12:30:11;11.30;99.80
40654;DHT22;26344;45.532;9.232;2022-12-20T12:32:38;11.20;99.90
40654;DHT22;26344;45.532;9.232;2022-12-20T12:35:10;11.20;99.90
40654;DHT22;26344;45.532;9.232;2022-12-20T12:45:45;11.10;99.90
40654;DHT22;26344;45.532;9.232;2022-12-20T12:48:22;11.10;99.90
40654;DHT22;26344;45.532;9.232;2022-12-20T12:50:50;11.40;99.90
40654;DHT22;26344;45.532;9.232;2022-12-20T12:53:20;11.50;99.90
40654;DHT22;26344;45.532;9.232;2022-12-20T13:00:53;11.20;99.90
40654;DHT22;26344;45.532;9.232;2022-12-20T13:06:41;11.10;99.90
40654;DHT22;26344;45.532;9.232;2022-12-20T13:11:36;11.10;99.90
40654;DHT22;26344;45.532;9.232;2022-12-20T13:21:46;11.00;99.90
40654;DHT22;26344;45.532;9.232;2022-12-20T13:26:53;10.90;99.90
40654;DHT22;26344;45.532;9.232;2022-12-20T13:29:25;12.40;99.90
40654;DHT22;26344;45.532;9.232;2022-12-20T13:31:51;10.90;99.90
40654;DHT22;26344;45.532;9.232;2022-12-20T13:35:17;10.80;99.90
40654;DHT22;26344;45.532;9.232;2022-12-20T13:37:25;10.90;99.90
40654;DHT22;26344;45.532;9.232;2022-12-20T13:39:51;11.10;99.90
40654;DHT22;26344;45.532;9.232;2022-12-20T13:42:21;11.60;99.90
40654;DHT22;26344;45.532;9.232;2022-12-20T13:44:51;11.20;99.90
40654;DHT22;26344;45.532;9.232;2022-12-20T13:49:50;11.40;99.90
40654;DHT22;26344;45.532;9.232;2022-12-20T13:52:19;11.40;99.90
40654;DHT22;26344;45.532;9.232;2022-12-20T13:54:49;10.90;99.90
40654;DHT22;26344;45.532;9.232;2022-12-20T13:57:17;10.90;99.90
40654;DHT22;26344;45.532;9.232;2022-12-20T13:59:46;10.80;99.90
40654;DHT22;26344;45.532;9.232;2022-12-20T14:02:28;10.90;99.90
40654;DHT22;26344;45.532;9.232;2022-12-20T14:05:01;10.90;99.90
40654;DHT22;26344;45.532;9.232;2022-12-20T14:07:28;10.90;99.90
40654;DHT22;26344;45.532;9.232;2022-12-20T14:09:56;10.80;99.90
40654;DHT22;26344;45.532;9.232;2022-12-20T14:12:22;10.70;99.90
40654;DHT22;26344;45.532;9.232;2022-12-20T14:14:48;10.80;99.90
40654;DHT22;26344;45.532;9.232;2022-12-20T14:19:40;10.80;99.90
40654;DHT22;26344;45.532;9.232;2022-12-20T14:22:06;10.80;99.90
40654;DHT22;26344;45.532;9.232;2022-12-20T14:24:32;11.10;99.90
40654;DHT22;26344;45.532;9.232;2022-12-20T14:26:58;10.80;99.90
40654;DHT22;26344;45.532;9.232;2022-12-20T14:31:51;10.90;99.90
40654;DHT22;26344;45.532;9.232;2022-12-20T14:34:26;10.90;99.90
40654;DHT22;26344;45.532;9.232;2022-12-20T14:36:54;10.80;99.90
40654;DHT22;26344;45.532;9.232;2022-12-20T14:39:37;10.60;99.90
40654;DHT22;26344;45.532;9.232;2022-12-20T14:44:32;10.80;99.90
40654;DHT22;26344;45.532;9.232;2022-12-20T14:46:59;10.90;99.90
40654;DHT22;26344;45.532;9.232;2022-12-20T15:02:33;10.70;99.90
40654;DHT22;26344;45.532;9.232;2022-12-20T15:04:59;10.70;99.90
40654;DHT22;26344;45.532;9.232;2022-12-20T15:07:29;10.80;99.90
40654;DHT22;26344;45.532;9.232;2022-12-20T15:09:55;10.80;99.90
40654;DHT22;26344;45.532;9.232;2022-12-20T15:12:21;11.60;99.90
40654;DHT22;26344;45.532;9.232;2022-12-20T15:14:46;10.80;99.90
40654;DHT22;26344;45.532;9.232;2022-12-20T15:17:13;10.70;99.90
40654;DHT22;26344;45.532;9.232;2022-12-20T15:19:41;10.30;99.90
40654;DHT22;26344;45.532;9.232;2022-12-20T15:22:13;13.80;99.90
40654;DHT22;26344;45.532;9.232;2022-12-20T15:24:40;10.80;99.90
40654;DHT22;26344;45.532;9.232;2022-12-20T15:27:05;11.10;99.90
40654;DHT22;26344;45.532;9.232;2022-12-20T15:29:31;11.00;99.90
40654;DHT22;26344;45.532;9.232;2022-12-20T15:32:38;10.70;99.90
40654;DHT22;26344;45.532;9.232;2022-12-20T15:34:45;10.80;99.90
40654;DHT22;26344;45.532;9.232;2022-12-20T15:37:13;10.60;99.90
40654;DHT22;26344;45.532;9.232;2022-12-20T15:39:39;10.80;99.90
40654;DHT22;26344;45.532;9.232;2022-12-20T15:42:05;10.80;99.90
40654;DHT22;26344;45.532;9.232;2022-12-20T15:44:30;10.80;99.90
40654;DHT22;26344;45.532;9.232;2022-12-20T15:46:57;10.60;99.90
40654;DHT22;26344;45.532;9.232;2022-12-20T15:49:31;10.70;99.90
40654;DHT22;26344;45.532;9.232;2022-12-20T15:51:57;11.50;99.90
40654;DHT22;26344;45.532;9.232;2022-12-20T15:54:30;10.50;99.90
40654;DHT22;26344;45.532;9.232;2022-12-20T15:56:57;10.70;99.90
40654;DHT22;26344;45.532;9.232;2022-12-20T15:59:23;10.50;99.90
40654;DHT22;26344;45.532;9.232;2022-12-20T16:01:49;11.60;99.90
40654;DHT22;26344;45.532;9.232;2022-12-20T16:04:18;11.20;99.90
40654;DHT22;26344;45.532;9.232;2022-12-20T16:06:44;10.60;99.90
40654;DHT22;26344;45.532;9.232;2022-12-20T16:09:10;10.50;99.90
40654;DHT22;26344;45.532;9.232;2022-12-20T16:11:36;11.10;99.90
40654;DHT22;26344;45.532;9.232;2022-12-20T16:14:02;10.80;99.90
40654;DHT22;26344;45.532;9.232;2022-12-20T16:16:29;10.50;99.90
40654;DHT22;26344;45.532;9.232;2022-12-20T16:18:55;11.00;99.90
40654;DHT22;26344;45.532;9.232;2022-12-20T16:43:21;10.70;99.90
40654;DHT22;26344;45.532;9.232;2022-12-20T17:44:22;10.70;99.90
40654;DHT22;26344;45.532;9.232;2022-12-20T17:49:14;10.70;99.90
40654;DHT22;26344;45.532;9.232;2022-12-20T17:56:32;10.80;99.90
40654;DHT22;26344;45.532;9.232;2022-12-20T18:18:26;10.80;99.90
40654;DHT22;26344;45.532;9.232;2022-12-20T18:20:59;10.70;99.90
40654;DHT22;26344;45.532;9.232;2022-12-20T18:23:25;10.80;99.90
40654;DHT22;26344;45.532;9.232;2022-12-20T18:28:16;10.80;99.90
40654;DHT22;26344;45.532;9.232;2022-12-20T18:38:03;10.80;99.90
40654;DHT22;26344;45.532;9.232;2022-12-20T18:40:29;10.80;99.90
40654;DHT22;26344;45.532;9.232;2022-12-20T19:39:11;10.70;99.90
40654;DHT22;26344;45.532;9.232;2022-12-20T19:48:57;10.70;99.90
40654;DHT22;26344;45.532;9.232;2022-12-20T19:51:23;10.70;99.90
40654;DHT22;26344;45.532;9.232;2022-12-20T19:53:50;10.60;99.90
40654;DHT22;26344;45.532;9.232;2022-12-20T20:10:58;10.50;99.90
40654;DHT22;26344;45.532;9.232;2022-12-20T20:15:54;10.60;99.90
40654;DHT22;26344;45.532;9.232;2022-12-20T20:20:46;10.60;99.90
40654;DHT22;26344;45.532;9.232;2022-12-20T20:42:45;10.70;99.90
40654;DHT22;26344;45.532;9.232;2022-12-20T21:29:04;10.70;99.90
40654;DHT22;26344;45.532;9.232;2022-12-20T21:31:29;10.60;99.90
40654;DHT22;26344;45.532;9.232;2022-12-20T21:38:47;10.40;99.90
40654;DHT22;26344;45.532;9.232;2022-12-20T21:46:06;10.50;99.90
40654;DHT22;26344;45.532;9.232;2022-12-20T21:48:36;10.40;99.90
40654;DHT22;26344;45.532;9.232;2022-12-20T21:51:06;10.20;99.90
40654;DHT22;26344;45.532;9.232;2022-12-20T21:56:00;10.20;99.90
40654;DHT22;26344;45.532;9.232;2022-12-20T21:58:26;10.30;99.90
40654;DHT22;26344;45.532;9.232;2022-12-20T22:10:36;10.20;99.90
40654;DHT22;26344;45.532;9.232;2022-12-20T22:13:01;10.20;99.90
40654;DHT22;26344;45.532;9.232;2022-12-20T22:25:12;10.30;99.90
40654;DHT22;26344;45.532;9.232;2022-12-20T22:27:37;10.30;99.90
40654;DHT22;26344;45.532;9.232;2022-12-20T22:42:13;10.40;99.90
40654;DHT22;26344;45.532;9.232;2022-12-20T23:17:04;10.30;99.90
40654;DHT22;26344;45.532;9.232;2022-12-20T23:32:17;10.30;99.90
40654;DHT22;26344;45.532;9.232;2022-12-20T23:49:18;10.20;99.90
40654;DHT22;26344;45.532;9.232;2022-12-20T23:51:43;10.10;99.90
